Mulvane, Kansas
Current Conditions -  °F | °C
As of 10:58 AM on Friday 24 Oct 2014 (Local Time) from KIAB Reporting Station
Clear Clear  
Wind Chill: 66°   Ceiling: Unl
Heat Index: 66°   Visibility: 10mi
Dew Point: 64°   Wind: 10mph
Humidity: 93%   Direction: 190°S
Pressure: 30.08"   Gusts: NA
Location:  37.47°N, 97.24°W
Report Text: KIAB 241558Z AUTO 19009KT 10SM CLR 19/18 A3008 RMK AO2 SLP182 T01890178
Loading
Personal Weather Stations






























Interactive Weather Map
Tropical Storm Tracking
New forecast layout! Learn more

10-Day Weather Forecast

Advertisements
Track Severe Weather on mobile